Time;durP1;ratioP1;P1;durP2;ratioP2;P2;SDS_P1;SDS_P2;PMS_P1;PMS_P2;Temp;Humidity;BMP_temperature;BMP_pressure;BME280_temperature;BME280_humidity;BME280_pressure;Samples;Min_cycle;Max_cycle;Signal;HPM_P1;HPM_P2
2021/09/06 00:01:35;;;;;;;5.57;3.08;;;461.00;2380.80;;;;;;5024046;28;20038;-87
2021/09/06 00:04:16;;;;;;;3.97;2.65;;;461.00;2380.80;;;;;;5031197;28;20025;-86
2021/09/06 00:06:42;;;;;;;4.97;2.60;;;461.00;2380.80;;;;;;5026132;28;20034;-87
2021/09/06 00:09:14;;;;;;;5.45;3.00;;;461.00;2380.80;;;;;;5031216;28;20036;-86
2021/09/06 00:11:40;;;;;;;4.70;3.03;;;460.90;2380.80;;;;;;5022027;28;20088;-85
2021/09/06 00:14:06;;;;;;;4.05;2.53;;;460.90;2380.80;;;;;;5026255;28;20021;-86
2021/09/06 00:16:31;;;;;;;4.97;2.67;;;460.90;2380.80;;;;;;5018382;28;20018;-85
2021/09/06 00:18:57;;;;;;;6.68;4.43;;;460.90;2380.80;;;;;;5041494;28;20120;-84
2021/09/06 00:21:26;;;;;;;4.38;2.83;;;460.90;2380.80;;;;;;5012421;28;20037;-86
2021/09/06 00:23:51;;;;;;;4.30;2.40;;;460.90;2380.80;;;;;;5024432;28;20538;-86
2021/09/06 00:26:17;;;;;;;5.45;3.10;;;460.90;2380.80;;;;;;5034861;28;20038;-85
2021/09/06 00:28:46;;;;;;;3.05;1.95;;;460.80;2380.80;;;;;;5031978;28;20684;-85
2021/09/06 00:31:15;;;;;;;8.05;2.55;;;460.80;2380.80;;;;;;5035327;28;20033;-85
2021/09/06 00:33:45;;;;;;;4.82;2.03;;;460.80;2380.80;;;;;;5025708;28;20032;-85
2021/09/06 00:36:16;;;;;;;4.35;2.03;;;436.10;2355.20;;;;;;5033089;28;20030;-84
2021/09/06 00:38:45;;;;;;;4.85;2.63;;;436.10;2355.20;;;;;;5025864;28;20427;-85
2021/09/06 00:41:11;;;;;;;5.00;2.55;;;460.80;2380.80;;;;;;5024544;28;20029;-85
2021/09/06 00:43:38;;;;;;;4.38;2.60;;;436.10;2355.20;;;;;;5018685;28;20038;-85
2021/09/06 00:46:04;;;;;;;6.60;2.88;;;460.80;2380.80;;;;;;5021998;28;20022;-85
2021/09/06 00:48:31;;;;;;;4.05;2.25;;;460.80;2380.80;;;;;;5034043;28;20067;-86
2021/09/06 00:50:57;;;;;;;3.25;1.92;;;460.80;2380.80;;;;;;5016162;28;20030;-84
2021/09/06 00:53:32;;;;;;;5.18;2.63;;;460.80;2380.80;;;;;;5020498;28;20476;-84
2021/09/06 00:55:57;;;;;;;3.85;2.20;;;460.80;2380.80;;;;;;5026965;28;20021;-85
2021/09/06 00:58:26;;;;;;;4.35;2.08;;;460.80;2380.80;;;;;;5036046;28;20045;-84
2021/09/06 01:00:58;;;;;;;4.47;1.95;;;460.80;2380.80;;;;;;5017209;28;20050;-84
2021/09/06 01:03:24;;;;;;;4.20;2.00;;;460.80;2380.80;;;;;;5031859;28;20029;-83
2021/09/06 01:05:50;;;;;;;3.75;2.50;;;460.80;2380.80;;;;;;5016778;28;20030;-84
2021/09/06 01:08:16;;;;;;;3.78;2.17;;;460.80;2380.80;;;;;;5026690;28;20013;-84
2021/09/06 01:10:41;;;;;;;5.47;2.28;;;460.80;2380.80;;;;;;5027897;28;20480;-84
2021/09/06 01:13:07;;;;;;;5.10;2.35;;;460.80;2380.80;;;;;;5020736;28;20022;-85
2021/09/06 01:15:36;;;;;;;3.63;1.90;;;460.80;2380.80;;;;;;5026568;28;20026;-85
2021/09/06 01:18:05;;;;;;;6.03;2.40;;;460.80;2380.80;;;;;;5043413;28;20029;-85
2021/09/06 01:20:30;;;;;;;6.00;2.60;;;460.80;2380.80;;;;;;5032008;28;20025;-85
2021/09/06 01:22:56;;;;;;;5.00;2.42;;;460.80;2380.80;;;;;;5025068;28;20448;-85
2021/09/06 01:25:22;;;;;;;7.43;2.38;;;460.80;2380.80;;;;;;5022462;28;20120;-85
2021/09/06 01:27:48;;;;;;;4.75;1.98;;;460.80;2380.80;;;;;;5027334;28;20042;-87
2021/09/06 01:30:14;;;;;;;4.38;2.38;;;460.80;2380.80;;;;;;5037082;28;20025;-88
2021/09/06 01:32:40;;;;;;;5.03;2.67;;;460.80;2380.80;;;;;;5034890;28;20034;-86
2021/09/06 01:35:07;;;;;;;5.28;2.30;;;460.80;2380.80;;;;;;5023672;28;20075;-86
2021/09/06 01:37:38;;;;;;;4.28;2.42;;;460.80;2380.80;;;;;;5025597;28;20503;-86
2021/09/06 01:40:05;;;;;;;4.53;2.08;;;460.80;2380.80;;;;;;5018997;28;20048;-87
2021/09/06 01:42:31;;;;;;;4.30;2.10;;;460.80;2380.80;;;;;;5031991;28;20026;-87
2021/09/06 01:45:02;;;;;;;5.25;2.47;;;436.10;2355.20;;;;;;5030053;28;20101;-89
2021/09/06 01:47:28;;;;;;;4.82;2.30;;;436.10;2355.20;;;;;;5034722;28;20029;-89
2021/09/06 01:49:55;;;;;;;5.18;2.45;;;436.10;2355.20;;;;;;5034164;28;20025;-88
2021/09/06 01:52:22;;;;;;;5.40;2.55;;;436.10;2355.20;;;;;;5034273;28;20033;-88
2021/09/06 01:54:47;;;;;;;3.33;1.98;;;436.00;2355.20;;;;;;5047323;28;20025;-87
2021/09/06 01:57:13;;;;;;;4.43;2.20;;;436.00;2355.20;;;;;;5023427;28;20017;-86
2021/09/06 01:59:39;;;;;;;2.60;1.92;;;436.00;2355.20;;;;;;5036439;28;20049;-88
2021/09/06 02:02:08;;;;;;;5.20;2.38;;;435.90;2355.20;;;;;;5028390;28;20196;-87
2021/09/06 02:04:33;;;;;;;6.07;2.47;;;435.90;2355.20;;;;;;5023232;28;20104;-87
2021/09/06 02:06:59;;;;;;;3.10;2.00;;;435.80;2355.20;;;;;;5029258;28;20127;-88
2021/09/06 02:09:25;;;;;;;6.47;3.38;;;435.70;2355.20;;;;;;5020445;28;20492;-87
2021/09/06 02:11:50;;;;;;;3.53;1.98;;;435.70;2355.20;;;;;;5034343;28;20095;-88
2021/09/06 02:14:16;;;;;;;6.95;2.53;;;435.70;2355.20;;;;;;5021151;28;20025;-86
2021/09/06 02:16:42;;;;;;;3.85;2.03;;;435.70;2355.20;;;;;;5039045;28;20020;-87
2021/09/06 02:19:11;;;;;;;4.40;2.58;;;435.50;2355.20;;;;;;5029354;28;20022;-85
2021/09/06 02:21:39;;;;;;;5.18;2.53;;;435.50;2355.20;;;;;;5045764;28;20079;-87
2021/09/06 02:24:11;;;;;;;3.58;2.10;;;435.40;2355.20;;;;;;5034893;28;20115;-86
2021/09/06 02:26:40;;;;;;;5.38;2.60;;;435.40;2355.20;;;;;;5033652;28;20021;-87
2021/09/06 02:29:06;;;;;;;3.72;2.38;;;435.40;2355.20;;;;;;5033066;28;20040;-87
2021/09/06 02:31:32;;;;;;;6.70;3.17;;;435.40;2355.20;;;;;;5034135;28;20400;-86
2021/09/06 02:34:01;;;;;;;4.93;2.65;;;435.40;2355.20;;;;;;5034793;28;20026;-86
2021/09/06 02:36:26;;;;;;;4.50;2.28;;;435.40;2355.20;;;;;;5035359;28;20045;-86
2021/09/06 02:38:53;;;;;;;4.80;2.35;;;435.20;2355.20;;;;;;5045690;28;20037;-86
2021/09/06 02:41:21;;;;;;;9.85;2.47;;;435.20;2355.20;;;;;;5060183;28;20036;-86
2021/09/06 02:43:47;;;;;;;9.13;3.55;;;435.20;2355.20;;;;;;5033658;28;20029;-88
2021/09/06 02:46:13;;;;;;;5.75;3.10;;;410.50;2355.20;;;;;;5033181;28;20167;-89
2021/09/06 02:48:42;;;;;;;6.82;3.97;;;410.50;2355.20;;;;;;5032945;28;20021;-88
2021/09/06 02:51:07;;;;;;;8.00;3.08;;;410.50;2355.20;;;;;;5034398;28;20025;-88
2021/09/06 02:53:36;;;;;;;24.27;16.20;;;410.50;2355.20;;;;;;5033136;28;20518;-88
2021/09/06 02:56:02;;;;;;;41.85;30.27;;;410.50;2355.20;;;;;;5033006;28;20061;-88
2021/09/06 02:58:27;;;;;;;53.38;46.50;;;410.40;2355.20;;;;;;5034572;28;20107;-88
2021/09/06 03:00:53;;;;;;;29.80;25.95;;;410.30;2355.20;;;;;;5033530;28;20061;-89
2021/09/06 03:03:19;;;;;;;40.10;27.08;;;410.20;2355.20;;;;;;5033497;28;20033;-87
2021/09/06 03:05:45;;;;;;;30.23;26.95;;;410.20;2355.20;;;;;;5019110;28;20017;-89
2021/09/06 03:08:14;;;;;;;12.10;8.70;;;410.20;2355.20;;;;;;5037464;28;20029;-87
2021/09/06 03:10:48;;;;;;;11.50;6.50;;;410.10;2355.20;;;;;;5028893;28;20133;-85
2021/09/06 03:13:14;;;;;;;7.60;4.40;;;410.10;2355.20;;;;;;5020647;28;20057;-85
2021/09/06 03:15:40;;;;;;;8.15;3.25;;;410.20;2355.20;;;;;;5022625;28;20061;-86
2021/09/06 03:18:05;;;;;;;8.32;4.25;;;410.20;2355.20;;;;;;5029178;28;20113;-83
2021/09/06 03:20:34;;;;;;;8.55;3.28;;;410.20;2355.20;;;;;;5033303;28;20403;-83
2021/09/06 03:23:00;;;;;;;6.05;3.20;;;410.20;2355.20;;;;;;5036289;28;20029;-83
2021/09/06 03:25:26;;;;;;;6.97;4.15;;;410.20;2355.20;;;;;;5021589;28;20026;-81
2021/09/06 03:27:54;;;;;;;8.00;4.47;;;410.20;2355.20;;;;;;5023270;28;20555;-82
2021/09/06 03:30:20;;;;;;;9.25;4.88;;;410.20;2355.20;;;;;;5033063;28;20094;-81
2021/09/06 03:32:52;;;;;;;7.68;4.18;;;410.10;2355.20;;;;;;5041950;28;20034;-81
2021/09/06 03:35:18;;;;;;;6.40;4.03;;;410.10;2355.20;;;;;;5029603;28;20022;-82
2021/09/06 03:37:46;;;;;;;9.00;4.38;;;410.10;2355.20;;;;;;5042133;28;20778;-82
2021/09/06 03:40:12;;;;;;;6.47;3.72;;;410.10;2355.20;;;;;;5038301;28;20043;-79
2021/09/06 03:42:38;;;;;;;6.13;4.00;;;410.10;2355.20;;;;;;5026301;28;20750;-80
2021/09/06 03:45:04;;;;;;;7.72;3.65;;;410.10;2355.20;;;;;;5049230;28;20080;-80
2021/09/06 03:47:33;;;;;;;8.35;4.15;;;410.10;2355.20;;;;;;5027235;28;20095;-80
2021/09/06 03:50:05;;;;;;;9.80;3.30;;;410.10;2355.20;;;;;;5049508;28;20761;-81
2021/09/06 03:52:31;;;;;;;8.05;2.70;;;410.00;2355.20;;;;;;5031645;28;20555;-82
2021/09/06 03:54:57;;;;;;;6.18;2.75;;;410.00;2355.20;;;;;;5037355;28;20097;-82
2021/09/06 03:57:26;;;;;;;5.80;2.58;;;410.00;2355.20;;;;;;5033500;28;20038;-82
2021/09/06 03:59:51;;;;;;;6.47;3.42;;;410.00;2355.20;;;;;;5021488;28;20099;-82
2021/09/06 04:02:17;;;;;;;6.97;3.42;;;410.00;2355.20;;;;;;5018857;28;20033;-84
2021/09/06 04:04:43;;;;;;;7.63;3.28;;;410.00;2355.20;;;;;;5033147;28;20030;-84
2021/09/06 04:07:09;;;;;;;6.22;3.15;;;410.00;2355.20;;;;;;5023604;28;20033;-84
2021/09/06 04:09:35;;;;;;;7.72;3.20;;;410.00;2355.20;;;;;;5032226;28;20716;-82
2021/09/06 04:12:00;;;;;;;6.80;3.13;;;409.90;2355.20;;;;;;5030459;28;20017;-82
2021/09/06 04:14:27;;;;;;;6.80;4.35;;;409.90;2355.20;;;;;;5030661;28;20029;-83
2021/09/06 04:16:56;;;;;;;6.82;3.55;;;409.90;2355.20;;;;;;5047655;28;20018;-82
2021/09/06 04:19:30;;;;;;;5.28;3.55;;;409.90;2355.20;;;;;;5031714;28;20080;-83
2021/09/06 04:21:56;;;;;;;4.70;2.63;;;410.00;2355.20;;;;;;5025119;28;20040;-82
2021/09/06 04:24:28;;;;;;;7.03;3.20;;;410.00;2355.20;;;;;;5030499;28;20041;-83
2021/09/06 04:26:55;;;;;;;8.13;3.33;;;410.00;2355.20;;;;;;5029580;28;20057;-82
2021/09/06 04:29:27;;;;;;;7.80;4.35;;;410.00;2355.20;;;;;;5028569;28;20045;-82
2021/09/06 04:31:56;;;;;;;14.10;6.35;;;410.00;2355.20;;;;;;5022754;28;20123;-82
2021/09/06 04:34:22;;;;;;;16.77;6.88;;;409.90;2355.20;;;;;;5036044;28;20113;-83
2021/09/06 04:36:48;;;;;;;9.25;4.55;;;410.00;2355.20;;;;;;5024872;28;20527;-82
2021/09/06 04:39:16;;;;;;;5.28;2.80;;;409.90;2355.20;;;;;;5036058;28;20064;-82
2021/09/06 04:41:42;;;;;;;8.55;4.13;;;410.00;2355.20;;;;;;5028080;28;20026;-79
2021/09/06 04:44:08;;;;;;;11.75;4.00;;;410.10;2355.20;;;;;;5028095;28;20030;-79
2021/09/06 04:46:37;;;;;;;11.80;4.38;;;410.10;2355.20;;;;;;5025199;28;20025;-79
2021/09/06 04:49:05;;;;;;;7.45;3.88;;;410.10;2355.20;;;;;;5029829;28;20037;-81
2021/09/06 04:51:31;;;;;;;9.27;4.25;;;410.00;2355.20;;;;;;5041299;28;20825;-79
2021/09/06 04:53:57;;;;;;;10.75;4.20;;;410.00;2355.20;;;;;;5030585;28;20025;-80
2021/09/06 04:56:26;;;;;;;14.10;5.00;;;410.00;2355.20;;;;;;5031707;28;20455;-81
2021/09/06 04:58:51;;;;;;;8.98;3.60;;;410.20;2355.20;;;;;;5030982;28;20030;-81
2021/09/06 05:01:18;;;;;;;6.65;3.83;;;410.30;2355.20;;;;;;5025453;28;20099;-83
2021/09/06 05:03:47;;;;;;;10.60;3.47;;;410.30;2355.20;;;;;;5019350;28;20026;-81
2021/09/06 05:06:12;;;;;;;5.47;3.88;;;410.40;2355.20;;;;;;5015748;28;20045;-82
2021/09/06 05:08:38;;;;;;;17.20;4.97;;;435.20;2355.20;;;;;;5017473;28;20045;-83
2021/09/06 05:11:07;;;;;;;12.02;5.15;;;435.20;2355.20;;;;;;5019705;28;20116;-83
2021/09/06 05:13:38;;;;;;;14.23;5.22;;;435.40;2355.20;;;;;;5022673;28;20105;-83
2021/09/06 05:16:07;;;;;;;8.57;4.32;;;435.50;2355.20;;;;;;5024929;28;20083;-84
2021/09/06 05:18:39;;;;;;;6.40;3.58;;;435.50;2355.20;;;;;;5024227;28;20064;-82
2021/09/06 05:21:08;;;;;;;8.50;4.25;;;435.50;2355.20;;;;;;5018851;28;20030;-82
2021/09/06 05:23:33;;;;;;;14.25;4.10;;;435.50;2355.20;;;;;;5036511;28;20067;-82
2021/09/06 05:25:59;;;;;;;8.23;4.43;;;435.60;2355.20;;;;;;5058227;28;20030;-82
2021/09/06 05:28:25;;;;;;;9.88;4.88;;;435.70;2355.20;;;;;;5036709;28;20094;-84
2021/09/06 05:30:51;;;;;;;10.93;4.57;;;435.80;2355.20;;;;;;5027462;28;20390;-83
2021/09/06 05:33:17;;;;;;;10.80;4.65;;;436.00;2355.20;;;;;;5025677;28;20112;-82
2021/09/06 05:35:42;;;;;;;8.25;4.65;;;436.10;2355.20;;;;;;5018666;28;20544;-83
2021/09/06 05:38:12;;;;;;;8.27;5.53;;;460.80;2380.80;;;;;;5028661;28;20031;-81
2021/09/06 05:40:38;;;;;;;11.13;4.93;;;460.90;2380.80;;;;;;5025515;28;20068;-84
2021/09/06 05:43:04;;;;;;;9.57;5.07;;;461.00;2380.80;;;;;;5028020;28;20373;-81
2021/09/06 05:45:31;;;;;;;9.68;5.15;;;461.10;2380.80;;;;;;5028384;28;20056;-82
2021/09/06 05:47:57;;;;;;;12.10;6.63;;;461.30;2380.80;;;;;;5018195;28;20099;-82
2021/09/06 05:50:29;;;;;;;15.93;6.90;;;461.10;2380.80;;;;;;5013697;28;20034;-82
2021/09/06 05:53:02;;;;;;;8.45;5.68;;;461.70;2380.80;;;;;;5028977;28;20022;-82
2021/09/06 05:55:27;;;;;;;11.48;5.68;;;486.50;2380.80;;;;;;5020505;28;20025;-82
2021/09/06 05:57:53;;;;;;;8.70;5.55;;;486.70;2380.80;;;;;;5025229;28;20030;-82
2021/09/06 06:00:24;;;;;;;17.65;6.50;;;486.90;2380.80;;;;;;5028105;28;20060;-82
2021/09/06 06:02:50;;;;;;;12.10;5.50;;;487.10;2380.80;;;;;;5014968;28;20085;-82
2021/09/06 06:05:19;;;;;;;11.40;4.88;;;487.30;2380.80;;;;;;5031237;28;20021;-82
2021/09/06 06:07:45;;;;;;;8.32;4.88;;;512.20;2380.80;;;;;;5033271;28;20088;-82
2021/09/06 06:10:14;;;;;;;10.02;4.93;;;512.30;2380.80;;;;;;5033952;28;20037;-82
2021/09/06 06:12:39;;;;;;;9.38;6.03;;;512.60;2380.80;;;;;;5034039;28;20089;-82
2021/09/06 06:15:23;;;;;;;9.23;5.07;;;512.90;2380.80;;;;;;5032616;28;20868;-82
2021/09/06 06:17:49;;;;;;;8.40;5.53;;;537.90;2406.40;;;;;;5032400;28;20093;-82
2021/09/06 06:20:20;;;;;;;12.07;6.35;;;538.10;2406.40;;;;;;5033930;28;20029;-81
2021/09/06 06:22:49;;;;;;;12.18;7.00;;;538.40;2406.40;;;;;;5033888;28;20017;-81
2021/09/06 06:25:21;;;;;;;9.43;5.68;;;563.20;2432.00;;;;;;5032086;28;20029;-81
2021/09/06 06:27:47;;;;;;;8.27;5.50;;;563.50;2432.00;;;;;;5032849;28;20437;-82
2021/09/06 06:30:13;;;;;;;8.38;5.53;;;563.60;2432.00;;;;;;5025611;28;20030;-82
2021/09/06 06:32:42;;;;;;;7.53;5.40;;;563.70;2432.00;;;;;;5025921;28;20033;-81
2021/09/06 06:35:11;;;;;;;10.52;5.68;;;563.90;2432.00;;;;;;5032429;28;20048;-82
2021/09/06 06:37:36;;;;;;;10.70;6.07;;;564.00;2432.00;;;;;;5032674;28;20143;-82
2021/09/06 06:40:03;;;;;;;11.63;5.00;;;588.80;2432.00;;;;;;5032136;28;20490;-82
2021/09/06 06:42:32;;;;;;;8.40;5.68;;;588.90;2432.00;;;;;;5033101;28;20109;-82
2021/09/06 06:45:01;;;;;;;8.73;5.85;;;588.90;2432.00;;;;;;5033659;28;20536;-82
2021/09/06 06:47:29;;;;;;;9.35;5.22;;;589.20;2432.00;;;;;;5048117;28;20084;-81
2021/09/06 06:49:55;;;;;;;8.40;5.20;;;589.30;2432.00;;;;;;5040463;28;20103;-82
2021/09/06 06:52:33;;;;;;;8.95;6.18;;;589.40;2432.00;;;;;;5030120;28;20033;-81
2021/09/06 06:54:59;;;;;;;8.77;5.00;;;589.60;2432.00;;;;;;5039022;28;20029;-82
2021/09/06 06:57:24;;;;;;;13.27;5.60;;;589.70;2432.00;;;;;;5017511;28;20030;-82
2021/09/06 06:59:53;;;;;;;12.45;4.72;;;589.70;2432.00;;;;;;5024598;28;20083;-82
2021/09/06 07:02:19;;;;;;;7.80;4.90;;;589.40;2432.00;;;;;;5026403;28;20049;-82
2021/09/06 07:04:45;;;;;;;10.23;5.07;;;589.50;2432.00;;;;;;5020249;28;20388;-81
2021/09/06 07:07:14;;;;;;;7.90;5.50;;;614.40;2432.00;;;;;;5035924;28;20029;-82
2021/09/06 07:09:42;;;;;;;11.75;5.68;;;614.60;2432.00;;;;;;5031487;28;20116;-82
2021/09/06 07:12:11;;;;;;;12.73;4.72;;;589.70;2432.00;;;;;;5024915;28;20404;-82
2021/09/06 07:14:37;;;;;;;11.55;5.57;;;614.50;2432.00;;;;;;5027063;28;20088;-82
2021/09/06 07:17:06;;;;;;;6.90;4.82;;;614.40;2432.00;;;;;;5040986;28;20033;-82
2021/09/06 07:19:32;;;;;;;6.90;4.93;;;614.50;2432.00;;;;;;5026933;28;20120;-82
2021/09/06 07:21:57;;;;;;;7.07;5.20;;;614.70;2432.00;;;;;;5029358;28;20096;-83
2021/09/06 07:24:23;;;;;;;10.25;5.47;;;614.90;2432.00;;;;;;5026944;28;20112;-82
2021/09/06 07:26:52;;;;;;;8.95;5.70;;;615.00;2432.00;;;;;;5012889;28;20033;-82
2021/09/06 07:29:18;;;;;;;11.95;5.43;;;615.20;2432.00;;;;;;5029458;28;20029;-82
2021/09/06 07:31:44;;;;;;;9.45;6.57;;;640.10;2406.40;;;;;;5020164;28;20034;-82
2021/09/06 07:34:13;;;;;;;8.85;6.28;;;640.30;2380.80;;;;;;5035467;28;20033;-82
2021/09/06 07:36:39;;;;;;;9.23;5.28;;;640.50;2355.20;;;;;;5030209;28;20080;-82
2021/09/06 07:39:04;;;;;;;12.57;5.13;;;640.60;2355.20;;;;;;5021856;28;20489;-82
2021/09/06 07:41:33;;;;;;;8.15;5.57;;;640.90;2329.60;;;;;;5027092;28;20068;-82
2021/09/06 07:43:59;;;;;;;10.10;6.22;;;640.80;2304.00;;;;;;5024199;28;20036;-82
2021/09/06 07:46:25;;;;;;;9.73;5.78;;;665.60;2304.00;;;;;;5032627;28;20033;-82
2021/09/06 07:48:51;;;;;;;11.13;5.20;;;665.80;2304.00;;;;;;5013943;28;20068;-81
2021/09/06 07:51:16;;;;;;;10.05;5.60;;;666.10;2252.80;;;;;;5013682;28;20095;-82
2021/09/06 07:53:44;;;;;;;11.02;6.03;;;666.30;2227.20;;;;;;5026917;28;20912;-82
2021/09/06 07:56:13;;;;;;;8.85;5.43;;;666.50;2227.20;;;;;;5019232;28;20112;-83
2021/09/06 07:58:44;;;;;;;12.98;5.95;;;691.20;2201.60;;;;;;5030229;28;20045;-83
2021/09/06 08:01:10;;;;;;;17.95;5.95;;;691.40;2201.60;;;;;;5029607;28;20516;-82
2021/09/06 08:03:35;;;;;;;10.43;4.57;;;691.40;2150.40;;;;;;5044350;28;20040;-82
2021/09/06 08:06:04;;;;;;;10.95;5.50;;;691.60;2124.80;;;;;;5038512;28;20026;-82
2021/09/06 08:08:30;;;;;;;10.77;6.03;;;691.70;2099.20;;;;;;5051520;28;20033;-84
2021/09/06 08:10:56;;;;;;;10.65;5.85;;;691.60;2099.20;;;;;;5012241;28;20033;-84
2021/09/06 08:13:25;;;;;;;8.98;5.95;;;691.80;2099.20;;;;;;5025167;28;20036;-83
2021/09/06 08:15:50;;;;;;;11.98;6.07;;;692.10;2048.00;;;;;;5035211;28;20116;-83
2021/09/06 08:18:16;;;;;;;12.85;5.55;;;716.80;2099.20;;;;;;5038852;28;20125;-82
2021/09/06 08:20:45;;;;;;;9.57;4.95;;;716.90;1996.80;;;;;;5021696;28;20080;-83
2021/09/06 08:23:11;;;;;;;6.80;4.85;;;716.90;1945.60;;;;;;5030260;28;20392;-82
2021/09/06 08:25:39;;;;;;;8.20;5.13;;;717.00;1920.00;;;;;;5026447;28;20028;-83
2021/09/06 08:28:05;;;;;;;7.40;5.32;;;716.80;1945.60;;;;;;5028236;28;20064;-82
2021/09/06 08:30:34;;;;;;;7.53;5.40;;;716.90;1945.60;;;;;;5019667;28;20053;-84
2021/09/06 08:33:05;;;;;;;6.95;4.85;;;717.10;1894.40;;;;;;5024681;28;20038;-83
2021/09/06 08:35:31;;;;;;;7.80;5.75;;;717.10;1894.40;;;;;;5030213;28;20030;-83
2021/09/06 08:37:57;;;;;;;14.80;7.72;;;717.40;1894.40;;;;;;5028753;28;20030;-82
2021/09/06 08:40:23;;;;;;;8.13;5.63;;;717.60;1843.20;;;;;;5029192;28;20476;-82
2021/09/06 08:42:50;;;;;;;10.60;5.53;;;717.70;1817.60;;;;;;5027334;28;20053;-82
2021/09/06 08:45:16;;;;;;;7.65;5.10;;;742.60;1817.60;;;;;;5029256;28;20060;-83
2021/09/06 08:47:45;;;;;;;6.47;4.85;;;742.80;1817.60;;;;;;5029485;28;20053;-83
2021/09/06 08:50:12;;;;;;;7.32;4.68;;;742.90;1792.00;;;;;;5041911;28;20040;-83
2021/09/06 08:52:39;;;;;;;9.18;5.15;;;743.10;1792.00;;;;;;5036859;28;20021;-83
2021/09/06 08:55:08;;;;;;;9.80;5.95;;;743.20;1766.40;;;;;;5052749;28;20013;-82
2021/09/06 08:57:37;;;;;;;10.23;5.47;;;768.00;1740.80;;;;;;5035135;28;20017;-83
2021/09/06 09:00:07;;;;;;;10.57;5.65;;;768.00;1715.20;;;;;;5030292;28;20046;-83
2021/09/06 09:02:36;;;;;;;7.75;5.18;;;768.00;1715.20;;;;;;5026856;28;20040;-83
2021/09/06 09:05:16;;;;;;;14.02;6.00;;;768.30;1689.60;;;;;;5030660;28;20042;-82
2021/09/06 09:07:58;;;;;;;9.00;6.03;;;768.50;1664.00;;;;;;5034089;28;20034;-84
2021/09/06 09:10:30;;;;;;;16.13;5.40;;;768.60;1664.00;;;;;;5021549;28;20047;-82
2021/09/06 09:13:07;;;;;;;8.43;5.30;;;768.80;1638.40;;;;;;5030388;28;20052;-82
2021/09/06 09:15:37;;;;;;;8.38;5.70;;;768.80;1638.40;;;;;;5041821;28;20084;-82
2021/09/06 09:18:10;;;;;;;10.45;6.47;;;768.90;1638.40;;;;;;5014405;28;20109;-82
2021/09/06 09:20:40;;;;;;;8.63;6.30;;;793.70;1638.40;;;;;;5027774;28;20037;-80
2021/09/06 09:23:06;;;;;;;7.15;5.70;;;794.10;1612.80;;;;;;5034132;28;20029;-81
2021/09/06 09:25:33;;;;;;;8.85;6.35;;;794.20;1612.80;;;;;;5033237;28;20068;-82
2021/09/06 09:28:05;;;;;;;11.70;5.60;;;794.50;1612.80;;;;;;5033155;28;20076;-81
2021/09/06 09:30:33;;;;;;;11.90;5.72;;;819.40;1561.60;;;;;;5033722;28;20029;-83
2021/09/06 09:33:14;;;;;;;9.93;5.80;;;819.60;1561.60;;;;;;5033332;28;20685;-82
2021/09/06 09:35:40;;;;;;;13.88;5.88;;;819.80;1536.00;;;;;;5021739;28;20026;-82
2021/09/06 09:38:11;;;;;;;7.05;4.95;;;844.80;1536.00;;;;;;5033945;28;20060;-81
2021/09/06 09:40:39;;;;;;;10.05;5.25;;;844.80;1536.00;;;;;;5042556;28;20029;-82
2021/09/06 09:43:09;;;;;;;14.70;5.65;;;844.80;1536.00;;;;;;5036020;28;20120;-80
2021/09/06 09:45:38;;;;;;;8.52;5.30;;;844.80;1536.00;;;;;;5023341;28;20639;-82
2021/09/06 09:48:05;;;;;;;9.80;5.47;;;844.80;1510.40;;;;;;5027613;28;20061;-81
2021/09/06 09:50:33;;;;;;;12.20;6.57;;;844.90;1510.40;;;;;;5034484;28;20041;-81
2021/09/06 09:52:59;;;;;;;9.43;5.28;;;845.30;1484.80;;;;;;5044632;28;20396;-81
2021/09/06 09:55:34;;;;;;;7.50;5.40;;;845.50;1484.80;;;;;;5026447;28;20479;-81
2021/09/06 09:58:00;;;;;;;7.95;5.40;;;845.40;1484.80;;;;;;5043391;28;20033;-80
2021/09/06 10:00:29;;;;;;;10.77;5.45;;;845.50;1459.20;;;;;;5034561;28;20060;-81
2021/09/06 10:03:05;;;;;;;8.98;5.28;;;845.70;1433.60;;;;;;5033059;28;20037;-81
2021/09/06 10:05:33;;;;;;;12.27;6.78;;;870.40;1459.20;;;;;;5043143;28;20053;-81
2021/09/06 10:08:01;;;;;;;6.97;4.97;;;870.70;1408.00;;;;;;5034643;28;20026;-81
2021/09/06 10:10:39;;;;;;;8.38;5.95;;;870.50;1433.60;;;;;;5042990;28;20033;-81
2021/09/06 10:13:09;;;;;;;13.90;6.95;;;870.60;1433.60;;;;;;5029746;28;20469;-82
2021/09/06 10:15:43;;;;;;;14.07;8.95;;;870.90;1408.00;;;;;;5033085;28;20052;-81
2021/09/06 10:18:20;;;;;;;10.35;7.00;;;871.20;1382.40;;;;;;5037752;28;20778;-81
2021/09/06 10:21:09;;;;;;;7.63;5.57;;;871.30;1382.40;;;;;;5026814;28;20438;-81
2021/09/06 10:23:42;;;;;;;8.23;4.95;;;896.20;1356.80;;;;;;5019992;28;20027;-82
2021/09/06 10:26:11;;;;;;;11.55;7.63;;;896.00;1356.80;;;;;;5034281;28;20029;-80
2021/09/06 10:28:40;;;;;;;12.77;8.77;;;896.40;1331.20;;;;;;5032851;28;20038;-81
2021/09/06 10:31:20;;;;;;;12.48;8.60;;;896.80;1305.60;;;;;;5029983;28;20121;-83
2021/09/06 10:34:02;;;;;;;11.23;8.95;;;921.70;1331.20;;;;;;5032992;28;20071;-82
2021/09/06 10:36:29;;;;;;;13.13;9.07;;;921.80;1305.60;;;;;;5032772;28;20025;-83
2021/09/06 10:39:07;;;;;;;9.45;5.53;;;922.10;1280.00;;;;;;5032461;28;20018;-82
2021/09/06 10:41:49;;;;;;;7.80;5.70;;;921.80;1280.00;;;;;;5033879;28;20029;-83
2021/09/06 10:44:18;;;;;;;8.52;5.75;;;896.70;1254.40;;;;;;5032387;28;20048;-83
2021/09/06 10:47:04;;;;;;;10.68;5.95;;;896.80;1254.40;;;;;;5033721;28;20024;-83
2021/09/06 10:49:33;;;;;;;11.63;6.38;;;922.00;1254.40;;;;;;5032398;28;20030;-83
2021/09/06 10:52:02;;;;;;;11.50;5.53;;;921.80;1254.40;;;;;;5036412;28;20094;-82
2021/09/06 10:54:28;;;;;;;7.25;5.72;;;896.90;1228.80;;;;;;5041351;28;20035;-83
2021/09/06 10:56:54;;;;;;;8.57;5.65;;;922.10;1254.40;;;;;;5031625;28;20052;-83
2021/09/06 10:59:25;;;;;;;8.98;6.28;;;922.30;1228.80;;;;;;5052729;28;20488;-82
2021/09/06 11:01:52;;;;;;;16.42;5.47;;;922.10;1254.40;;;;;;5032476;28;20090;-82
2021/09/06 11:04:22;;;;;;;6.88;6.18;;;922.30;1228.80;;;;;;5037502;28;20044;-83
2021/09/06 11:07:02;;;;;;;8.48;5.13;;;947.20;1228.80;;;;;;5037562;28;20029;-83
2021/09/06 11:09:35;;;;;;;8.18;5.88;;;922.50;1203.20;;;;;;5019734;28;20036;-82
2021/09/06 11:12:06;;;;;;;12.55;5.78;;;947.30;1177.60;;;;;;5019678;28;20029;-83
2021/09/06 11:14:44;;;;;;;7.93;5.88;;;947.20;1203.20;;;;;;5033374;28;20026;-83
2021/09/06 11:17:26;;;;;;;7.80;5.47;;;896.30;1228.80;;;;;;5031481;28;20018;-83
2021/09/06 11:19:56;;;;;;;8.38;5.75;;;896.50;1228.80;;;;;;5039372;28;20041;-82
2021/09/06 11:22:26;;;;;;;10.63;5.20;;;922.10;1228.80;;;;;;5032278;28;20506;-83
2021/09/06 11:25:04;;;;;;;9.80;6.57;;;922.50;1203.20;;;;;;5035898;28;20030;-83
2021/09/06 11:27:35;;;;;;;9.32;5.65;;;922.10;1228.80;;;;;;5032081;28;20083;-82
2021/09/06 11:30:02;;;;;;;7.05;5.80;;;896.50;1228.80;;;;;;5024208;28;20511;-83
2021/09/06 11:32:31;;;;;;;17.85;8.48;;;922.10;1203.20;;;;;;5048439;28;20488;-82
2021/09/06 11:35:04;;;;;;;19.00;16.80;;;947.50;1177.60;;;;;;5018336;28;20492;-83
2021/09/06 11:37:33;;;;;;;12.10;7.72;;;948.00;1152.00;;;;;;5028227;28;20057;-83
2021/09/06 11:39:58;;;;;;;10.90;6.70;;;973.20;1177.60;;;;;;5030382;28;20029;-83
2021/09/06 11:42:28;;;;;;;18.35;16.02;;;973.30;1126.40;;;;;;5032366;28;20037;-83
2021/09/06 11:44:57;;;;;;;14.80;11.15;;;973.30;1126.40;;;;;;5019752;28;20044;-82
2021/09/06 11:47:26;;;;;;;14.98;10.60;;;973.30;1152.00;;;;;;5027305;28;20792;-81
2021/09/06 11:50:05;;;;;;;17.52;10.07;;;973.50;1126.40;;;;;;5030813;28;20038;-80
2021/09/06 11:52:35;;;;;;;13.65;11.13;;;998.60;1126.40;;;;;;5023754;28;20033;-82
2021/09/06 11:55:13;;;;;;;15.82;10.02;;;973.50;1126.40;;;;;;5032460;28;20476;-82
2021/09/06 11:57:46;;;;;;;8.60;7.07;;;998.40;1126.40;;;;;;5035696;28;20109;-81
2021/09/06 12:00:18;;;;;;;11.10;7.63;;;948.10;1100.80;;;;;;5023645;28;20045;-81
2021/09/06 12:02:52;;;;;;;8.82;6.95;;;947.20;1152.00;;;;;;5031163;28;20033;-82
2021/09/06 12:05:18;;;;;;;7.32;5.43;;;896.60;1177.60;;;;;;5026893;28;20400;-81
2021/09/06 12:07:56;;;;;;;7.68;5.25;;;922.20;1152.00;;;;;;5024989;28;20061;-82
2021/09/06 12:10:29;;;;;;;9.25;6.05;;;896.80;1152.00;;;;;;5041543;28;21513;-82
2021/09/06 12:13:25;;;;;;;21.10;13.68;;;871.30;1203.20;;;;;;5024634;28;20489;-81
2021/09/06 12:15:54;;;;;;;9.57;7.53;;;871.10;1203.20;;;;;;5028983;28;20097;-81
2021/09/06 12:18:23;;;;;;;11.13;7.85;;;922.00;1152.00;;;;;;5035399;28;20057;-80
2021/09/06 12:20:49;;;;;;;11.75;7.50;;;921.60;1177.60;;;;;;5030997;28;20436;-80